sensor_id;sensor_type;location;lat;lon;timestamp;P1;durP1;ratioP1;P2;durP2;ratioP2
70301;SDS011;57706;56.326;43.882;2023-04-25T00:01:46;9.27;;;4.38;;
70301;SDS011;57706;56.326;43.882;2023-04-25T00:04:12;6.38;;;3.75;;
70301;SDS011;57706;56.326;43.882;2023-04-25T00:06:38;7.50;;;3.63;;
70301;SDS011;57706;56.326;43.882;2023-04-25T00:09:05;8.98;;;3.75;;
70301;SDS011;57706;56.326;43.882;2023-04-25T00:11:36;9.77;;;3.72;;
70301;SDS011;57706;56.326;43.882;2023-04-25T00:14:03;6.22;;;3.70;;
70301;SDS011;57706;56.326;43.882;2023-04-25T00:16:30;5.75;;;3.60;;
70301;SDS011;57706;56.326;43.882;2023-04-25T00:18:59;7.00;;;3.65;;
70301;SDS011;57706;56.326;43.882;2023-04-25T00:21:27;12.38;;;4.28;;
70301;SDS011;57706;56.326;43.882;2023-04-25T00:23:54;6.72;;;3.92;;
70301;SDS011;57706;56.326;43.882;2023-04-25T00:26:20;5.43;;;4.13;;
70301;SDS011;57706;56.326;43.882;2023-04-25T00:28:47;8.77;;;3.95;;
70301;SDS011;57706;56.326;43.882;2023-04-25T00:31:13;5.47;;;4.22;;
70301;SDS011;57706;56.326;43.882;2023-04-25T00:33:39;8.73;;;4.20;;
70301;SDS011;57706;56.326;43.882;2023-04-25T00:36:05;10.90;;;4.95;;
70301;SDS011;57706;56.326;43.882;2023-04-25T00:38:31;9.32;;;4.30;;
70301;SDS011;57706;56.326;43.882;2023-04-25T00:40:57;11.45;;;4.90;;
70301;SDS011;57706;56.326;43.882;2023-04-25T00:43:26;15.73;;;6.47;;
70301;SDS011;57706;56.326;43.882;2023-04-25T00:45:53;9.20;;;5.90;;
70301;SDS011;57706;56.326;43.882;2023-04-25T00:48:22;7.93;;;5.32;;
70301;SDS011;57706;56.326;43.882;2023-04-25T00:50:51;10.93;;;5.95;;
70301;SDS011;57706;56.326;43.882;2023-04-25T00:53:20;9.35;;;5.32;;
70301;SDS011;57706;56.326;43.882;2023-04-25T00:55:50;7.07;;;5.10;;
70301;SDS011;57706;56.326;43.882;2023-04-25T00:58:17;11.15;;;5.63;;
70301;SDS011;57706;56.326;43.882;2023-04-25T01:00:44;12.55;;;5.38;;
70301;SDS011;57706;56.326;43.882;2023-04-25T01:03:12;7.55;;;4.65;;
70301;SDS011;57706;56.326;43.882;2023-04-25T01:05:40;11.88;;;4.55;;
70301;SDS011;57706;56.326;43.882;2023-04-25T01:08:07;11.55;;;5.20;;
70301;SDS011;57706;56.326;43.882;2023-04-25T01:10:33;12.65;;;3.70;;
70301;SDS011;57706;56.326;43.882;2023-04-25T01:12:59;7.18;;;4.80;;
70301;SDS011;57706;56.326;43.882;2023-04-25T01:15:25;12.40;;;4.93;;
70301;SDS011;57706;56.326;43.882;2023-04-25T01:17:51;7.90;;;4.78;;
70301;SDS011;57706;56.326;43.882;2023-04-25T01:20:19;9.38;;;4.22;;
70301;SDS011;57706;56.326;43.882;2023-04-25T01:22:47;9.68;;;4.88;;
70301;SDS011;57706;56.326;43.882;2023-04-25T01:25:14;7.57;;;4.35;;
70301;SDS011;57706;56.326;43.882;2023-04-25T01:27:40;18.92;;;5.10;;
70301;SDS011;57706;56.326;43.882;2023-04-25T01:30:06;18.30;;;4.82;;
70301;SDS011;57706;56.326;43.882;2023-04-25T01:32:33;8.07;;;4.90;;
70301;SDS011;57706;56.326;43.882;2023-04-25T01:35:06;11.00;;;4.32;;
70301;SDS011;57706;56.326;43.882;2023-04-25T01:37:38;7.18;;;5.25;;
70301;SDS011;57706;56.326;43.882;2023-04-25T01:40:06;17.10;;;5.15;;
70301;SDS011;57706;56.326;43.882;2023-04-25T01:42:34;7.45;;;4.03;;
70301;SDS011;57706;56.326;43.882;2023-04-25T01:45:02;7.78;;;4.97;;
70301;SDS011;57706;56.326;43.882;2023-04-25T01:47:31;10.15;;;4.15;;
70301;SDS011;57706;56.326;43.882;2023-04-25T01:49:57;9.98;;;4.50;;
70301;SDS011;57706;56.326;43.882;2023-04-25T01:52:22;10.48;;;4.57;;
70301;SDS011;57706;56.326;43.882;2023-04-25T01:54:48;10.32;;;4.50;;
70301;SDS011;57706;56.326;43.882;2023-04-25T01:57:17;7.15;;;4.85;;
70301;SDS011;57706;56.326;43.882;2023-04-25T01:59:44;9.15;;;4.00;;
70301;SDS011;57706;56.326;43.882;2023-04-25T02:02:36;7.30;;;4.30;;
70301;SDS011;57706;56.326;43.882;2023-04-25T02:05:03;8.63;;;3.88;;
70301;SDS011;57706;56.326;43.882;2023-04-25T02:07:31;6.45;;;4.40;;
70301;SDS011;57706;56.326;43.882;2023-04-25T02:09:57;6.18;;;4.35;;
70301;SDS011;57706;56.326;43.882;2023-04-25T02:12:26;7.15;;;4.13;;
70301;SDS011;57706;56.326;43.882;2023-04-25T02:14:59;5.13;;;4.18;;
70301;SDS011;57706;56.326;43.882;2023-04-25T02:17:39;8.27;;;3.90;;
70301;SDS011;57706;56.326;43.882;2023-04-25T02:20:05;8.75;;;4.25;;
70301;SDS011;57706;56.326;43.882;2023-04-25T02:22:32;10.88;;;3.83;;
70301;SDS011;57706;56.326;43.882;2023-04-25T02:24:59;7.75;;;3.45;;
70301;SDS011;57706;56.326;43.882;2023-04-25T02:27:25;12.88;;;4.50;;
70301;SDS011;57706;56.326;43.882;2023-04-25T02:29:51;5.55;;;3.70;;
70301;SDS011;57706;56.326;43.882;2023-04-25T02:32:17;7.88;;;3.63;;
70301;SDS011;57706;56.326;43.882;2023-04-25T02:34:43;9.13;;;4.30;;
70301;SDS011;57706;56.326;43.882;2023-04-25T02:37:08;8.90;;;3.38;;
70301;SDS011;57706;56.326;43.882;2023-04-25T02:39:35;7.47;;;4.03;;
70301;SDS011;57706;56.326;43.882;2023-04-25T02:42:01;6.30;;;4.10;;
70301;SDS011;57706;56.326;43.882;2023-04-25T02:44:29;12.50;;;4.05;;
70301;SDS011;57706;56.326;43.882;2023-04-25T02:46:55;6.05;;;3.50;;
70301;SDS011;57706;56.326;43.882;2023-04-25T02:49:23;12.25;;;3.92;;
70301;SDS011;57706;56.326;43.882;2023-04-25T02:51:49;6.07;;;3.72;;
70301;SDS011;57706;56.326;43.882;2023-04-25T02:54:15;6.78;;;4.07;;
70301;SDS011;57706;56.326;43.882;2023-04-25T02:56:43;9.13;;;3.50;;
70301;SDS011;57706;56.326;43.882;2023-04-25T02:59:14;5.13;;;3.42;;
70301;SDS011;57706;56.326;43.882;2023-04-25T03:01:40;9.45;;;4.70;;
70301;SDS011;57706;56.326;43.882;2023-04-25T03:04:06;9.43;;;4.57;;
70301;SDS011;57706;56.326;43.882;2023-04-25T03:06:32;8.40;;;3.90;;
70301;SDS011;57706;56.326;43.882;2023-04-25T03:08:57;9.63;;;4.63;;
70301;SDS011;57706;56.326;43.882;2023-04-25T03:11:25;10.40;;;5.72;;
70301;SDS011;57706;56.326;43.882;2023-04-25T03:13:51;7.30;;;4.35;;
70301;SDS011;57706;56.326;43.882;2023-04-25T03:16:18;10.98;;;4.47;;
70301;SDS011;57706;56.326;43.882;2023-04-25T03:18:45;12.48;;;3.92;;
70301;SDS011;57706;56.326;43.882;2023-04-25T03:21:11;7.72;;;4.22;;
70301;SDS011;57706;56.326;43.882;2023-04-25T03:23:36;13.55;;;4.30;;
70301;SDS011;57706;56.326;43.882;2023-04-25T03:26:02;10.48;;;4.10;;
70301;SDS011;57706;56.326;43.882;2023-04-25T03:28:28;15.07;;;4.93;;
70301;SDS011;57706;56.326;43.882;2023-04-25T03:30:55;11.13;;;4.45;;
70301;SDS011;57706;56.326;43.882;2023-04-25T03:33:21;9.43;;;4.07;;
70301;SDS011;57706;56.326;43.882;2023-04-25T03:35:47;7.25;;;4.10;;
70301;SDS011;57706;56.326;43.882;2023-04-25T03:38:13;6.25;;;3.67;;
70301;SDS011;57706;56.326;43.882;2023-04-25T03:40:39;6.63;;;3.72;;
70301;SDS011;57706;56.326;43.882;2023-04-25T03:43:22;12.57;;;4.57;;
70301;SDS011;57706;56.326;43.882;2023-04-25T03:45:56;8.85;;;3.92;;
70301;SDS011;57706;56.326;43.882;2023-04-25T03:48:23;14.82;;;4.22;;
70301;SDS011;57706;56.326;43.882;2023-04-25T03:50:53;9.93;;;4.25;;
70301;SDS011;57706;56.326;43.882;2023-04-25T03:53:20;6.93;;;3.85;;
70301;SDS011;57706;56.326;43.882;2023-04-25T03:56:04;11.40;;;4.15;;
70301;SDS011;57706;56.326;43.882;2023-04-25T03:58:34;9.98;;;3.85;;
70301;SDS011;57706;56.326;43.882;2023-04-25T04:00:59;13.73;;;4.38;;
70301;SDS011;57706;56.326;43.882;2023-04-25T04:03:27;12.98;;;3.70;;
70301;SDS011;57706;56.326;43.882;2023-04-25T04:05:53;10.48;;;3.78;;
70301;SDS011;57706;56.326;43.882;2023-04-25T04:08:19;7.90;;;4.20;;
70301;SDS011;57706;56.326;43.882;2023-04-25T04:10:46;8.25;;;4.20;;
70301;SDS011;57706;56.326;43.882;2023-04-25T04:13:12;6.60;;;3.78;;
70301;SDS011;57706;56.326;43.882;2023-04-25T04:15:38;10.43;;;4.40;;
70301;SDS011;57706;56.326;43.882;2023-04-25T04:18:04;8.20;;;4.35;;
70301;SDS011;57706;56.326;43.882;2023-04-25T04:20:30;9.73;;;4.30;;
70301;SDS011;57706;56.326;43.882;2023-04-25T04:22:56;5.45;;;3.90;;
70301;SDS011;57706;56.326;43.882;2023-04-25T04:25:23;6.35;;;3.67;;
70301;SDS011;57706;56.326;43.882;2023-04-25T04:28:06;7.38;;;4.53;;
70301;SDS011;57706;56.326;43.882;2023-04-25T04:30:53;12.13;;;5.63;;
70301;SDS011;57706;56.326;43.882;2023-04-25T04:33:18;14.38;;;7.15;;
70301;SDS011;57706;56.326;43.882;2023-04-25T04:35:46;19.90;;;7.47;;
70301;SDS011;57706;56.326;43.882;2023-04-25T04:38:13;24.90;;;9.07;;
70301;SDS011;57706;56.326;43.882;2023-04-25T04:40:41;22.15;;;12.15;;
70301;SDS011;57706;56.326;43.882;2023-04-25T04:43:24;22.38;;;11.73;;
70301;SDS011;57706;56.326;43.882;2023-04-25T04:46:08;17.90;;;9.25;;
70301;SDS011;57706;56.326;43.882;2023-04-25T04:48:55;21.85;;;9.38;;
70301;SDS011;57706;56.326;43.882;2023-04-25T04:51:57;23.20;;;8.32;;
70301;SDS011;57706;56.326;43.882;2023-04-25T04:54:41;17.20;;;9.65;;
70301;SDS011;57706;56.326;43.882;2023-04-25T04:57:25;22.27;;;10.57;;
70301;SDS011;57706;56.326;43.882;2023-04-25T05:00:27;29.88;;;12.82;;
70301;SDS011;57706;56.326;43.882;2023-04-25T05:03:12;23.80;;;11.95;;
70301;SDS011;57706;56.326;43.882;2023-04-25T05:06:01;18.30;;;8.30;;
70301;SDS011;57706;56.326;43.882;2023-04-25T05:08:50;13.68;;;7.90;;
70301;SDS011;57706;56.326;43.882;2023-04-25T05:11:35;8.52;;;5.07;;
70301;SDS011;57706;56.326;43.882;2023-04-25T05:14:13;8.57;;;4.28;;
70301;SDS011;57706;56.326;43.882;2023-04-25T05:16:59;10.23;;;4.20;;
70301;SDS011;57706;56.326;43.882;2023-04-25T05:19:52;7.57;;;3.70;;
70301;SDS011;57706;56.326;43.882;2023-04-25T05:22:48;7.55;;;3.75;;
70301;SDS011;57706;56.326;43.882;2023-04-25T05:25:33;5.13;;;3.90;;
70301;SDS011;57706;56.326;43.882;2023-04-25T05:28:10;9.65;;;4.20;;
70301;SDS011;57706;56.326;43.882;2023-04-25T05:31:10;7.30;;;3.95;;
70301;SDS011;57706;56.326;43.882;2023-04-25T05:33:50;9.77;;;4.45;;
70301;SDS011;57706;56.326;43.882;2023-04-25T05:36:18;7.97;;;3.53;;
70301;SDS011;57706;56.326;43.882;2023-04-25T05:38:44;11.25;;;4.00;;
70301;SDS011;57706;56.326;43.882;2023-04-25T05:41:13;14.23;;;4.38;;
70301;SDS011;57706;56.326;43.882;2023-04-25T05:43:43;6.47;;;3.05;;
70301;SDS011;57706;56.326;43.882;2023-04-25T05:46:35;18.00;;;4.38;;
70301;SDS011;57706;56.326;43.882;2023-04-25T05:49:20;10.82;;;3.90;;
70301;SDS011;57706;56.326;43.882;2023-04-25T05:51:52;8.32;;;3.50;;
70301;SDS011;57706;56.326;43.882;2023-04-25T05:54:36;7.40;;;3.28;;
70301;SDS011;57706;56.326;43.882;2023-04-25T05:57:03;11.63;;;2.90;;
70301;SDS011;57706;56.326;43.882;2023-04-25T05:59:29;8.23;;;3.42;;
70301;SDS011;57706;56.326;43.882;2023-04-25T06:01:55;11.90;;;3.95;;
70301;SDS011;57706;56.326;43.882;2023-04-25T06:04:21;7.82;;;3.35;;
70301;SDS011;57706;56.326;43.882;2023-04-25T06:06:47;14.93;;;3.15;;
70301;SDS011;57706;56.326;43.882;2023-04-25T06:09:13;5.20;;;2.92;;
70301;SDS011;57706;56.326;43.882;2023-04-25T06:11:39;7.18;;;2.60;;
70301;SDS011;57706;56.326;43.882;2023-04-25T06:14:11;8.52;;;3.50;;
70301;SDS011;57706;56.326;43.882;2023-04-25T06:16:43;9.70;;;3.17;;
70301;SDS011;57706;56.326;43.882;2023-04-25T06:19:09;8.68;;;2.97;;
70301;SDS011;57706;56.326;43.882;2023-04-25T06:21:35;11.38;;;3.42;;
70301;SDS011;57706;56.326;43.882;2023-04-25T06:24:02;8.68;;;2.92;;
70301;SDS011;57706;56.326;43.882;2023-04-25T06:26:28;12.55;;;3.17;;
70301;SDS011;57706;56.326;43.882;2023-04-25T06:28:54;5.50;;;2.92;;
70301;SDS011;57706;56.326;43.882;2023-04-25T06:31:20;14.35;;;2.97;;
70301;SDS011;57706;56.326;43.882;2023-04-25T06:33:47;10.00;;;2.80;;
70301;SDS011;57706;56.326;43.882;2023-04-25T06:36:13;10.63;;;3.50;;
70301;SDS011;57706;56.326;43.882;2023-04-25T06:38:41;11.35;;;2.97;;
70301;SDS011;57706;56.326;43.882;2023-04-25T06:41:07;10.98;;;3.30;;
70301;SDS011;57706;56.326;43.882;2023-04-25T06:43:35;7.70;;;2.90;;
70301;SDS011;57706;56.326;43.882;2023-04-25T06:46:01;17.52;;;2.95;;
70301;SDS011;57706;56.326;43.882;2023-04-25T06:48:28;9.85;;;3.05;;
70301;SDS011;57706;56.326;43.882;2023-04-25T06:50:54;6.95;;;2.90;;
70301;SDS011;57706;56.326;43.882;2023-04-25T06:53:22;24.42;;;3.22;;
70301;SDS011;57706;56.326;43.882;2023-04-25T06:55:54;13.95;;;2.10;;
70301;SDS011;57706;56.326;43.882;2023-04-25T06:58:22;7.15;;;2.38;;
70301;SDS011;57706;56.326;43.882;2023-04-25T07:01:11;7.20;;;2.10;;
70301;SDS011;57706;56.326;43.882;2023-04-25T07:03:37;7.20;;;2.40;;
70301;SDS011;57706;56.326;43.882;2023-04-25T07:06:07;8.10;;;2.55;;
70301;SDS011;57706;56.326;43.882;2023-04-25T07:08:33;4.85;;;2.20;;
70301;SDS011;57706;56.326;43.882;2023-04-25T07:10:59;17.02;;;2.63;;
70301;SDS011;57706;56.326;43.882;2023-04-25T07:13:25;9.13;;;2.22;;
70301;SDS011;57706;56.326;43.882;2023-04-25T07:15:51;7.65;;;2.22;;
70301;SDS011;57706;56.326;43.882;2023-04-25T07:18:19;4.25;;;2.30;;
70301;SDS011;57706;56.326;43.882;2023-04-25T07:20:45;11.05;;;1.95;;
70301;SDS011;57706;56.326;43.882;2023-04-25T07:23:12;5.85;;;2.38;;
70301;SDS011;57706;56.326;43.882;2023-04-25T07:25:38;3.70;;;1.88;;
70301;SDS011;57706;56.326;43.882;2023-04-25T07:28:05;7.25;;;1.77;;
70301;SDS011;57706;56.326;43.882;2023-04-25T07:30:31;10.23;;;2.40;;
70301;SDS011;57706;56.326;43.882;2023-04-25T07:32:57;4.32;;;1.92;;
70301;SDS011;57706;56.326;43.882;2023-04-25T07:35:23;8.45;;;2.88;;
70301;SDS011;57706;56.326;43.882;2023-04-25T07:37:49;4.32;;;1.65;;
70301;SDS011;57706;56.326;43.882;2023-04-25T07:40:18;7.18;;;2.20;;
70301;SDS011;57706;56.326;43.882;2023-04-25T07:42:51;14.88;;;2.70;;
70301;SDS011;57706;56.326;43.882;2023-04-25T07:45:25;17.35;;;3.00;;
70301;SDS011;57706;56.326;43.882;2023-04-25T07:47:52;7.55;;;1.88;;
70301;SDS011;57706;56.326;43.882;2023-04-25T07:50:18;6.65;;;2.25;;
70301;SDS011;57706;56.326;43.882;2023-04-25T07:52:45;7.63;;;2.20;;
70301;SDS011;57706;56.326;43.882;2023-04-25T07:55:17;4.68;;;2.10;;
70301;SDS011;57706;56.326;43.882;2023-04-25T07:58:04;3.88;;;2.45;;
70301;SDS011;57706;56.326;43.882;2023-04-25T08:00:31;14.00;;;2.80;;
70301;SDS011;57706;56.326;43.882;2023-04-25T08:03:17;15.18;;;2.53;;
70301;SDS011;57706;56.326;43.882;2023-04-25T08:05:43;4.32;;;1.98;;
70301;SDS011;57706;56.326;43.882;2023-04-25T08:08:11;4.25;;;2.28;;
70301;SDS011;57706;56.326;43.882;2023-04-25T08:10:37;6.43;;;2.40;;
70301;SDS011;57706;56.326;43.882;2023-04-25T08:13:03;9.57;;;2.58;;
70301;SDS011;57706;56.326;43.882;2023-04-25T08:15:29;6.70;;;1.92;;
70301;SDS011;57706;56.326;43.882;2023-04-25T08:17:55;3.28;;;2.03;;
70301;SDS011;57706;56.326;43.882;2023-04-25T08:20:21;6.07;;;1.60;;
70301;SDS011;57706;56.326;43.882;2023-04-25T08:22:49;5.97;;;2.15;;
70301;SDS011;57706;56.326;43.882;2023-04-25T08:25:41;6.68;;;2.13;;
70301;SDS011;57706;56.326;43.882;2023-04-25T08:28:09;12.38;;;2.08;;
70301;SDS011;57706;56.326;43.882;2023-04-25T08:30:36;6.75;;;2.17;;
70301;SDS011;57706;56.326;43.882;2023-04-25T08:33:02;5.07;;;2.05;;
70301;SDS011;57706;56.326;43.882;2023-04-25T08:35:47;5.00;;;2.17;;
70301;SDS011;57706;56.326;43.882;2023-04-25T08:38:14;8.85;;;2.50;;
70301;SDS011;57706;56.326;43.882;2023-04-25T08:40:40;13.20;;;2.47;;
70301;SDS011;57706;56.326;43.882;2023-04-25T08:43:14;6.72;;;2.40;;
70301;SDS011;57706;56.326;43.882;2023-04-25T08:45:41;13.18;;;1.73;;
70301;SDS011;57706;56.326;43.882;2023-04-25T08:48:12;4.70;;;2.00;;
70301;SDS011;57706;56.326;43.882;2023-04-25T08:50:40;5.63;;;2.38;;
70301;SDS011;57706;56.326;43.882;2023-04-25T08:53:25;5.38;;;2.33;;
70301;SDS011;57706;56.326;43.882;2023-04-25T08:55:53;4.68;;;2.20;;
70301;SDS011;57706;56.326;43.882;2023-04-25T08:58:21;9.18;;;1.83;;
70301;SDS011;57706;56.326;43.882;2023-04-25T09:00:48;7.05;;;2.20;;
70301;SDS011;57706;56.326;43.882;2023-04-25T09:03:16;10.02;;;2.10;;
70301;SDS011;57706;56.326;43.882;2023-04-25T09:05:44;5.20;;;2.20;;
70301;SDS011;57706;56.326;43.882;2023-04-25T09:08:14;12.43;;;2.35;;
70301;SDS011;57706;56.326;43.882;2023-04-25T09:10:41;10.65;;;2.35;;
70301;SDS011;57706;56.326;43.882;2023-04-25T09:13:11;8.07;;;2.05;;
70301;SDS011;57706;56.326;43.882;2023-04-25T09:15:58;8.70;;;1.70;;
70301;SDS011;57706;56.326;43.882;2023-04-25T09:18:39;4.80;;;1.90;;
70301;SDS011;57706;56.326;43.882;2023-04-25T09:21:06;3.80;;;1.92;;
70301;SDS011;57706;56.326;43.882;2023-04-25T09:23:46;19.00;;;2.92;;
70301;SDS011;57706;56.326;43.882;2023-04-25T09:26:14;17.65;;;2.08;;
70301;SDS011;57706;56.326;43.882;2023-04-25T09:28:43;5.70;;;2.17;;
70301;SDS011;57706;56.326;43.882;2023-04-25T09:31:09;4.82;;;1.85;;
70301;SDS011;57706;56.326;43.882;2023-04-25T09:33:43;8.48;;;2.20;;
70301;SDS011;57706;56.326;43.882;2023-04-25T09:36:09;11.07;;;2.20;;
70301;SDS011;57706;56.326;43.882;2023-04-25T09:38:57;4.07;;;2.42;;
70301;SDS011;57706;56.326;43.882;2023-04-25T09:41:28;7.20;;;3.17;;
70301;SDS011;57706;56.326;43.882;2023-04-25T09:43:58;16.23;;;2.90;;
70301;SDS011;57706;56.326;43.882;2023-04-25T09:46:33;14.52;;;3.50;;
70301;SDS011;57706;56.326;43.882;2023-04-25T09:49:05;12.80;;;2.78;;
70301;SDS011;57706;56.326;43.882;2023-04-25T09:51:41;11.38;;;2.30;;
70301;SDS011;57706;56.326;43.882;2023-04-25T09:54:08;5.75;;;2.80;;
70301;SDS011;57706;56.326;43.882;2023-04-25T09:56:38;11.85;;;3.40;;
70301;SDS011;57706;56.326;43.882;2023-04-25T09:59:07;7.63;;;2.13;;
70301;SDS011;57706;56.326;43.882;2023-04-25T10:01:35;5.50;;;2.47;;
70301;SDS011;57706;56.326;43.882;2023-04-25T10:04:11;6.45;;;2.05;;
70301;SDS011;57706;56.326;43.882;2023-04-25T10:06:58;10.20;;;2.70;;
70301;SDS011;57706;56.326;43.882;2023-04-25T10:09:26;4.32;;;2.40;;
70301;SDS011;57706;56.326;43.882;2023-04-25T10:11:57;9.30;;;2.55;;
70301;SDS011;57706;56.326;43.882;2023-04-25T10:14:24;7.13;;;2.17;;
70301;SDS011;57706;56.326;43.882;2023-04-25T10:16:51;9.52;;;2.55;;
70301;SDS011;57706;56.326;43.882;2023-04-25T10:19:19;8.50;;;2.20;;
70301;SDS011;57706;56.326;43.882;2023-04-25T10:21:48;7.88;;;3.55;;
70301;SDS011;57706;56.326;43.882;2023-04-25T10:24:28;13.30;;;3.38;;
70301;SDS011;57706;56.326;43.882;2023-04-25T10:26:55;10.48;;;4.07;;
70301;SDS011;57706;56.326;43.882;2023-04-25T10:29:23;10.73;;;3.30;;
70301;SDS011;57706;56.326;43.882;2023-04-25T10:31:50;8.00;;;3.70;;
70301;SDS011;57706;56.326;43.882;2023-04-25T10:34:16;10.10;;;3.78;;
70301;SDS011;57706;56.326;43.882;2023-04-25T10:36:47;8.77;;;3.00;;
70301;SDS011;57706;56.326;43.882;2023-04-25T10:39:21;9.63;;;2.80;;
70301;SDS011;57706;56.326;43.882;2023-04-25T10:41:56;6.25;;;2.35;;
70301;SDS011;57706;56.326;43.882;2023-04-25T10:44:26;10.25;;;2.30;;
70301;SDS011;57706;56.326;43.882;2023-04-25T10:46:57;8.95;;;2.35;;
70301;SDS011;57706;56.326;43.882;2023-04-25T10:49:28;4.45;;;2.33;;
70301;SDS011;57706;56.326;43.882;2023-04-25T10:54:53;6.32;;;2.42;;
70301;SDS011;57706;56.326;43.882;2023-04-25T10:57:32;9.82;;;2.53;;
70301;SDS011;57706;56.326;43.882;2023-04-25T11:00:04;6.53;;;2.28;;
70301;SDS011;57706;56.326;43.882;2023-04-25T11:02:45;13.43;;;2.70;;
70301;SDS011;57706;56.326;43.882;2023-04-25T11:05:19;8.90;;;2.05;;
70301;SDS011;57706;56.326;43.882;2023-04-25T11:07:51;4.68;;;2.00;;
70301;SDS011;57706;56.326;43.882;2023-04-25T11:10:19;8.80;;;2.20;;
70301;SDS011;57706;56.326;43.882;2023-04-25T11:12:46;9.02;;;2.20;;
70301;SDS011;57706;56.326;43.882;2023-04-25T11:15:13;8.50;;;2.00;;
70301;SDS011;57706;56.326;43.882;2023-04-25T11:17:39;3.28;;;1.83;;
70301;SDS011;57706;56.326;43.882;2023-04-25T11:20:07;11.77;;;2.53;;
70301;SDS011;57706;56.326;43.882;2023-04-25T11:25:06;8.25;;;2.72;;
70301;SDS011;57706;56.326;43.882;2023-04-25T11:27:33;10.77;;;2.92;;
70301;SDS011;57706;56.326;43.882;2023-04-25T11:30:12;15.48;;;2.45;;
70301;SDS011;57706;56.326;43.882;2023-04-25T11:32:41;7.55;;;2.22;;
70301;SDS011;57706;56.326;43.882;2023-04-25T11:35:11;8.20;;;2.50;;
70301;SDS011;57706;56.326;43.882;2023-04-25T11:37:40;7.85;;;3.30;;
70301;SDS011;57706;56.326;43.882;2023-04-25T11:40:07;8.00;;;2.38;;
70301;SDS011;57706;56.326;43.882;2023-04-25T11:42:45;29.30;;;3.35;;
70301;SDS011;57706;56.326;43.882;2023-04-25T11:45:12;10.32;;;2.33;;
70301;SDS011;57706;56.326;43.882;2023-04-25T11:47:39;6.68;;;2.00;;
70301;SDS011;57706;56.326;43.882;2023-04-25T11:50:07;14.52;;;2.55;;
70301;SDS011;57706;56.326;43.882;2023-04-25T11:52:37;8.95;;;2.75;;
70301;SDS011;57706;56.326;43.882;2023-04-25T11:55:08;10.52;;;2.50;;
70301;SDS011;57706;56.326;43.882;2023-04-25T11:57:35;16.15;;;2.50;;
70301;SDS011;57706;56.326;43.882;2023-04-25T12:00:13;9.55;;;2.78;;
70301;SDS011;57706;56.326;43.882;2023-04-25T12:02:44;16.25;;;2.53;;
70301;SDS011;57706;56.326;43.882;2023-04-25T12:05:17;5.78;;;2.47;;
70301;SDS011;57706;56.326;43.882;2023-04-25T12:07:43;8.27;;;2.72;;
70301;SDS011;57706;56.326;43.882;2023-04-25T12:10:10;7.93;;;2.88;;
70301;SDS011;57706;56.326;43.882;2023-04-25T12:12:41;12.57;;;2.80;;
70301;SDS011;57706;56.326;43.882;2023-04-25T12:17:41;11.70;;;2.30;;
70301;SDS011;57706;56.326;43.882;2023-04-25T12:20:12;10.07;;;2.75;;
70301;SDS011;57706;56.326;43.882;2023-04-25T12:22:40;15.07;;;2.67;;
70301;SDS011;57706;56.326;43.882;2023-04-25T12:25:13;8.15;;;2.80;;
70301;SDS011;57706;56.326;43.882;2023-04-25T12:28:18;7.72;;;2.92;;
70301;SDS011;57706;56.326;43.882;2023-04-25T12:33:22;7.53;;;2.50;;
70301;SDS011;57706;56.326;43.882;2023-04-25T12:35:47;11.05;;;2.65;;
70301;SDS011;57706;56.326;43.882;2023-04-25T12:38:23;16.20;;;3.28;;
70301;SDS011;57706;56.326;43.882;2023-04-25T12:40:54;10.38;;;2.58;;
70301;SDS011;57706;56.326;43.882;2023-04-25T12:43:20;10.57;;;2.78;;
70301;SDS011;57706;56.326;43.882;2023-04-25T12:45:47;12.77;;;2.83;;
70301;SDS011;57706;56.326;43.882;2023-04-25T12:48:17;8.10;;;2.38;;
70301;SDS011;57706;56.326;43.882;2023-04-25T12:50:44;7.28;;;2.60;;
70301;SDS011;57706;56.326;43.882;2023-04-25T12:53:12;9.43;;;2.22;;
70301;SDS011;57706;56.326;43.882;2023-04-25T12:55:38;6.75;;;2.60;;
70301;SDS011;57706;56.326;43.882;2023-04-25T12:58:05;7.00;;;2.17;;
70301;SDS011;57706;56.326;43.882;2023-04-25T13:00:31;8.20;;;2.58;;
70301;SDS011;57706;56.326;43.882;2023-04-25T13:02:57;11.25;;;2.30;;
70301;SDS011;57706;56.326;43.882;2023-04-25T13:05:23;11.82;;;2.60;;
70301;SDS011;57706;56.326;43.882;2023-04-25T13:07:49;9.13;;;2.15;;
70301;SDS011;57706;56.326;43.882;2023-04-25T13:10:14;9.40;;;2.25;;
70301;SDS011;57706;56.326;43.882;2023-04-25T13:12:40;11.40;;;2.20;;
70301;SDS011;57706;56.326;43.882;2023-04-25T13:15:06;14.82;;;2.28;;
70301;SDS011;57706;56.326;43.882;2023-04-25T13:17:34;11.73;;;2.65;;
70301;SDS011;57706;56.326;43.882;2023-04-25T13:20:00;9.43;;;1.98;;
70301;SDS011;57706;56.326;43.882;2023-04-25T13:22:29;18.98;;;2.30;;
70301;SDS011;57706;56.326;43.882;2023-04-25T13:24:54;13.73;;;2.47;;
70301;SDS011;57706;56.326;43.882;2023-04-25T13:27:20;20.08;;;3.03;;
70301;SDS011;57706;56.326;43.882;2023-04-25T13:29:46;10.77;;;2.20;;
70301;SDS011;57706;56.326;43.882;2023-04-25T13:32:12;10.18;;;2.60;;
70301;SDS011;57706;56.326;43.882;2023-04-25T13:34:38;7.78;;;1.60;;
70301;SDS011;57706;56.326;43.882;2023-04-25T13:37:03;3.13;;;1.42;;
70301;SDS011;57706;56.326;43.882;2023-04-25T13:39:31;5.85;;;2.95;;
70301;SDS011;57706;56.326;43.882;2023-04-25T13:41:57;7.63;;;4.20;;
70301;SDS011;57706;56.326;43.882;2023-04-25T13:44:23;11.18;;;6.18;;
70301;SDS011;57706;56.326;43.882;2023-04-25T13:46:49;8.85;;;6.13;;
70301;SDS011;57706;56.326;43.882;2023-04-25T13:49:15;8.35;;;4.22;;
70301;SDS011;57706;56.326;43.882;2023-04-25T13:51:40;5.70;;;2.55;;
70301;SDS011;57706;56.326;43.882;2023-04-25T13:54:07;7.60;;;2.67;;
70301;SDS011;57706;56.326;43.882;2023-04-25T13:56:33;5.93;;;2.72;;
70301;SDS011;57706;56.326;43.882;2023-04-25T13:58:59;4.75;;;3.13;;
70301;SDS011;57706;56.326;43.882;2023-04-25T14:01:25;5.25;;;2.90;;
70301;SDS011;57706;56.326;43.882;2023-04-25T14:03:51;7.22;;;3.17;;
70301;SDS011;57706;56.326;43.882;2023-04-25T14:06:17;6.72;;;3.47;;
70301;SDS011;57706;56.326;43.882;2023-04-25T14:08:49;5.05;;;2.85;;
70301;SDS011;57706;56.326;43.882;2023-04-25T14:11:15;6.20;;;3.50;;
70301;SDS011;57706;56.326;43.882;2023-04-25T14:13:44;6.63;;;3.55;;
70301;SDS011;57706;56.326;43.882;2023-04-25T14:16:10;5.50;;;3.08;;
70301;SDS011;57706;56.326;43.882;2023-04-25T14:18:36;11.57;;;4.38;;
70301;SDS011;57706;56.326;43.882;2023-04-25T14:21:02;5.65;;;2.60;;
70301;SDS011;57706;56.326;43.882;2023-04-25T14:23:28;6.22;;;3.25;;
70301;SDS011;57706;56.326;43.882;2023-04-25T14:25:53;6.55;;;3.28;;
70301;SDS011;57706;56.326;43.882;2023-04-25T14:28:19;5.80;;;3.63;;
70301;SDS011;57706;56.326;43.882;2023-04-25T14:30:45;8.00;;;3.42;;
70301;SDS011;57706;56.326;43.882;2023-04-25T14:33:11;5.82;;;3.22;;
70301;SDS011;57706;56.326;43.882;2023-04-25T14:35:37;5.63;;;3.08;;
70301;SDS011;57706;56.326;43.882;2023-04-25T14:38:04;7.75;;;3.80;;
70301;SDS011;57706;56.326;43.882;2023-04-25T14:40:30;7.30;;;3.80;;
70301;SDS011;57706;56.326;43.882;2023-04-25T14:42:56;6.82;;;3.92;;
70301;SDS011;57706;56.326;43.882;2023-04-25T14:45:22;6.57;;;4.13;;
70301;SDS011;57706;56.326;43.882;2023-04-25T14:47:48;8.32;;;3.90;;
70301;SDS011;57706;56.326;43.882;2023-04-25T14:50:14;5.25;;;3.33;;
70301;SDS011;57706;56.326;43.882;2023-04-25T14:52:40;13.10;;;3.88;;
70301;SDS011;57706;56.326;43.882;2023-04-25T14:55:06;6.50;;;4.03;;